sensor_id;sensor_type;location;lat;lon;timestamp;pressure;altitude;pressure_sealevel;temperature;humidity
49945;BME280;35838;49.134;9.212;2022-10-15T00:00:40;99110.34;;;14.80;100.00
49945;BME280;35838;49.134;9.212;2022-10-15T00:02:14;99119.03;;;14.81;100.00
49945;BME280;35838;49.134;9.212;2022-10-15T00:03:48;99119.03;;;14.81;100.00
49945;BME280;35838;49.134;9.212;2022-10-15T00:05:22;99117.69;;;14.69;100.00
49945;BME280;35838;49.134;9.212;2022-10-15T00:06:56;99120.03;;;14.77;100.00
49945;BME280;35838;49.134;9.212;2022-10-15T00:08:31;99107.78;;;14.79;100.00
49945;BME280;35838;49.134;9.212;2022-10-15T00:10:05;99107.63;;;14.83;100.00
49945;BME280;35838;49.134;9.212;2022-10-15T00:11:39;99110.59;;;14.72;100.00
49945;BME280;35838;49.134;9.212;2022-10-15T00:13:13;99114.03;;;14.75;100.00
49945;BME280;35838;49.134;9.212;2022-10-15T00:14:47;99102.53;;;14.80;100.00
49945;BME280;35838;49.134;9.212;2022-10-15T00:16:26;99108.59;;;14.81;100.00
49945;BME280;35838;49.134;9.212;2022-10-15T00:18:00;99108.50;;;14.84;100.00
49945;BME280;35838;49.134;9.212;2022-10-15T00:19:34;99110.94;;;14.88;100.00
49945;BME280;35838;49.134;9.212;2022-10-15T00:21:10;99109.56;;;14.78;100.00
49945;BME280;35838;49.134;9.212;2022-10-15T00:22:45;99104.03;;;14.86;100.00
49945;BME280;35838;49.134;9.212;2022-10-15T00:24:19;99104.09;;;14.84;100.00
49945;BME280;35838;49.134;9.212;2022-10-15T00:26:00;99107.59;;;14.85;100.00
49945;BME280;35838;49.134;9.212;2022-10-15T00:27:36;99104.81;;;14.90;100.00
49945;BME280;35838;49.134;9.212;2022-10-15T00:29:12;99106.34;;;14.95;100.00
49945;BME280;35838;49.134;9.212;2022-10-15T00:30:46;99116.00;;;14.93;100.00
49945;BME280;35838;49.134;9.212;2022-10-15T00:32:23;99109.75;;;14.97;100.00
49945;BME280;35838;49.134;9.212;2022-10-15T00:33:59;99109.66;;;15.00;100.00
49945;BME280;35838;49.134;9.212;2022-10-15T00:35:33;99106.34;;;14.95;100.00
49945;BME280;35838;49.134;9.212;2022-10-15T00:37:05;99105.81;;;14.85;100.00
49945;BME280;35838;49.134;9.212;2022-10-15T00:38:40;99111.63;;;14.94;100.00
49945;BME280;35838;49.134;9.212;2022-10-15T00:40:15;99103.88;;;14.91;100.00
49945;BME280;35838;49.134;9.212;2022-10-15T00:41:50;99100.22;;;14.96;100.00
49945;BME280;35838;49.134;9.212;2022-10-15T00:43:42;99098.50;;;14.95;100.00
49945;BME280;35838;49.134;9.212;2022-10-15T00:45:17;99101.25;;;14.92;100.00
49945;BME280;35838;49.134;9.212;2022-10-15T00:46:53;99100.22;;;14.96;100.00
49945;BME280;35838;49.134;9.212;2022-10-15T00:48:30;99102.09;;;14.93;100.00
49945;BME280;35838;49.134;9.212;2022-10-15T00:50:06;99100.44;;;14.90;100.00
49945;BME280;35838;49.134;9.212;2022-10-15T00:51:46;99105.56;;;14.93;100.00
49945;BME280;35838;49.134;9.212;2022-10-15T00:53:21;99095.13;;;14.93;100.00
49945;BME280;35838;49.134;9.212;2022-10-15T00:54:59;99098.41;;;14.98;100.00
49945;BME280;35838;49.134;9.212;2022-10-15T00:56:32;99098.50;;;14.95;100.00
49945;BME280;35838;49.134;9.212;2022-10-15T00:58:10;99097.50;;;14.99;100.00
49945;BME280;35838;49.134;9.212;2022-10-15T00:59:50;99092.53;;;14.92;100.00
49945;BME280;35838;49.134;9.212;2022-10-15T01:01:25;99096.84;;;14.93;100.00
49945;BME280;35838;49.134;9.212;2022-10-15T01:02:59;99097.72;;;14.93;100.00
49945;BME280;35838;49.134;9.212;2022-10-15T01:04:36;99086.19;;;14.73;100.00
49945;BME280;35838;49.134;9.212;2022-10-15T01:06:11;99089.41;;;14.82;100.00
49945;BME280;35838;49.134;9.212;2022-10-15T01:07:45;99088.44;;;14.84;100.00
49945;BME280;35838;49.134;9.212;2022-10-15T01:09:19;99086.69;;;14.85;100.00
49945;BME280;35838;49.134;9.212;2022-10-15T01:11:01;99087.78;;;14.78;100.00
49945;BME280;35838;49.134;9.212;2022-10-15T01:12:47;99084.34;;;14.77;100.00
49945;BME280;35838;49.134;9.212;2022-10-15T01:14:34;99079.75;;;14.84;100.00
49945;BME280;35838;49.134;9.212;2022-10-15T01:16:16;99080.50;;;14.87;100.00
49945;BME280;35838;49.134;9.212;2022-10-15T01:17:55;99075.28;;;14.87;100.00
49945;BME280;35838;49.134;9.212;2022-10-15T01:19:55;99074.31;;;14.90;100.00
49945;BME280;35838;49.134;9.212;2022-10-15T01:21:37;99078.63;;;14.91;100.00
49945;BME280;35838;49.134;9.212;2022-10-15T01:25:28;99073.28;;;14.94;100.00
49945;BME280;35838;49.134;9.212;2022-10-15T01:27:26;99067.94;;;14.97;100.00
49945;BME280;35838;49.134;9.212;2022-10-15T01:29:12;99072.28;;;14.98;100.00
49945;BME280;35838;49.134;9.212;2022-10-15T01:30:55;99074.56;;;15.08;100.00
49945;BME280;35838;49.134;9.212;2022-10-15T01:32:35;99072.13;;;15.03;100.00
49945;BME280;35838;49.134;9.212;2022-10-15T01:34:15;99061.44;;;15.09;100.00
49945;BME280;35838;49.134;9.212;2022-10-15T01:35:52;99064.03;;;15.09;100.00
49945;BME280;35838;49.134;9.212;2022-10-15T01:37:35;99067.94;;;14.97;100.00
49945;BME280;35838;49.134;9.212;2022-10-15T01:39:11;99061.75;;;15.00;100.00
49945;BME280;35838;49.134;9.212;2022-10-15T01:40:50;99060.03;;;15.00;100.00
49945;BME280;35838;49.134;9.212;2022-10-15T01:42:29;99063.31;;;15.06;100.00
49945;BME280;35838;49.134;9.212;2022-10-15T01:44:06;99063.28;;;15.07;100.00
49945;BME280;35838;49.134;9.212;2022-10-15T01:45:47;99066.16;;;14.99;100.00
49945;BME280;35838;49.134;9.212;2022-10-15T01:47:29;99065.06;;;15.05;100.00
49945;BME280;35838;49.134;9.212;2022-10-15T01:49:06;99063.31;;;15.06;100.00
49945;BME280;35838;49.134;9.212;2022-10-15T01:50:44;99053.88;;;15.01;100.00
49945;BME280;35838;49.134;9.212;2022-10-15T01:52:20;99056.59;;;14.98;100.00
49945;BME280;35838;49.134;9.212;2022-10-15T01:53:57;99056.50;;;15.01;100.00
49945;BME280;35838;49.134;9.212;2022-10-15T01:55:30;99053.88;;;15.01;100.00
49945;BME280;35838;49.134;9.212;2022-10-15T01:57:06;99059.78;;;15.07;100.00
49945;BME280;35838;49.134;9.212;2022-10-15T01:58:42;99052.81;;;15.07;100.00
49945;BME280;35838;49.134;9.212;2022-10-15T02:00:17;99051.09;;;15.06;100.00
49945;BME280;35838;49.134;9.212;2022-10-15T02:01:52;99051.63;;;14.91;100.00
49945;BME280;35838;49.134;9.212;2022-10-15T02:03:28;99044.38;;;14.99;100.00
49945;BME280;35838;49.134;9.212;2022-10-15T02:05:04;99038.94;;;15.05;100.00
49945;BME280;35838;49.134;9.212;2022-10-15T02:06:43;99052.00;;;15.05;100.00
49945;BME280;35838;49.134;9.212;2022-10-15T02:08:24;99046.66;;;15.08;100.00
49945;BME280;35838;49.134;9.212;2022-10-15T02:10:07;99041.50;;;15.07;100.00
49945;BME280;35838;49.134;9.212;2022-10-15T02:11:53;99038.75;;;14.86;100.00
49945;BME280;35838;49.134;9.212;2022-10-15T02:13:37;99043.88;;;14.89;100.00
49945;BME280;35838;49.134;9.212;2022-10-15T02:15:17;99043.63;;;14.95;100.00
49945;BME280;35838;49.134;9.212;2022-10-15T02:16:58;99040.03;;;14.99;100.00
49945;BME280;35838;49.134;9.212;2022-10-15T02:18:40;99047.16;;;14.94;100.00
49945;BME280;35838;49.134;9.212;2022-10-15T02:20:19;99050.13;;;14.85;100.00
49945;BME280;35838;49.134;9.212;2022-10-15T02:22:00;99036.19;;;14.84;100.00
49945;BME280;35838;49.134;9.212;2022-10-15T02:23:42;99045.56;;;14.90;100.00
49945;BME280;35838;49.134;9.212;2022-10-15T02:25:20;99047.09;;;14.72;100.00
49945;BME280;35838;49.134;9.212;2022-10-15T02:26:56;99047.44;;;14.86;100.00
49945;BME280;35838;49.134;9.212;2022-10-15T02:28:29;99053.72;;;14.81;100.00
49945;BME280;35838;49.134;9.212;2022-10-15T02:30:07;99058.69;;;14.88;100.00
49945;BME280;35838;49.134;9.212;2022-10-15T02:31:43;99059.31;;;14.95;100.00
49945;BME280;35838;49.134;9.212;2022-10-15T02:33:20;99056.59;;;14.98;100.00
49945;BME280;35838;49.134;9.212;2022-10-15T02:34:59;99062.16;;;14.89;100.00
49945;BME280;35838;49.134;9.212;2022-10-15T02:36:34;99048.03;;;14.95;100.00
49945;BME280;35838;49.134;9.212;2022-10-15T02:38:13;99061.72;;;15.01;100.00
49945;BME280;35838;49.134;9.212;2022-10-15T02:39:50;99055.91;;;14.93;100.00
49945;BME280;35838;49.134;9.212;2022-10-15T02:41:26;99055.13;;;14.91;100.00
49945;BME280;35838;49.134;9.212;2022-10-15T02:43:04;99057.81;;;14.88;100.00
49945;BME280;35838;49.134;9.212;2022-10-15T02:44:39;99057.59;;;14.94;100.00
49945;BME280;35838;49.134;9.212;2022-10-15T02:46:13;99058.78;;;14.85;100.00
49945;BME280;35838;49.134;9.212;2022-10-15T02:47:48;99054.41;;;14.86;100.00
49945;BME280;35838;49.134;9.212;2022-10-15T02:49:22;99055.75;;;14.72;100.00
49945;BME280;35838;49.134;9.212;2022-10-15T02:50:59;99050.69;;;14.68;100.00
49945;BME280;35838;49.134;9.212;2022-10-15T02:52:30;99055.84;;;14.69;100.00
49945;BME280;35838;49.134;9.212;2022-10-15T02:54:05;99055.50;;;14.80;100.00
49945;BME280;35838;49.134;9.212;2022-10-15T02:55:42;99058.00;;;14.83;100.00
49945;BME280;35838;49.134;9.212;2022-10-15T02:57:14;99054.63;;;14.80;100.00
49945;BME280;35838;49.134;9.212;2022-10-15T02:58:48;99065.66;;;14.88;100.00
49945;BME280;35838;49.134;9.212;2022-10-15T03:00:22;99063.75;;;14.93;100.00
49945;BME280;35838;49.134;9.212;2022-10-15T03:01:56;99057.50;;;14.97;100.00
49945;BME280;35838;49.134;9.212;2022-10-15T03:03:30;99058.38;;;14.98;100.00
49945;BME280;35838;49.134;9.212;2022-10-15T03:05:04;99064.44;;;14.98;100.00
49945;BME280;35838;49.134;9.212;2022-10-15T03:06:41;99062.00;;;14.94;100.00
49945;BME280;35838;49.134;9.212;2022-10-15T03:08:15;99054.31;;;14.89;100.00
49945;BME280;35838;49.134;9.212;2022-10-15T03:09:46;99067.94;;;14.97;100.00
49945;BME280;35838;49.134;9.212;2022-10-15T03:11:20;99065.91;;;15.06;100.00
49945;BME280;35838;49.134;9.212;2022-10-15T03:12:54;99060.59;;;15.09;100.00
49945;BME280;35838;49.134;9.212;2022-10-15T03:14:28;99071.38;;;14.99;100.00
49945;BME280;35838;49.134;9.212;2022-10-15T03:16:04;99068.38;;;15.10;100.00
49945;BME280;35838;49.134;9.212;2022-10-15T03:17:38;99064.84;;;15.11;100.00
49945;BME280;35838;49.134;9.212;2022-10-15T03:19:12;99060.47;;;15.12;100.00
49945;BME280;35838;49.134;9.212;2022-10-15T03:20:44;99065.59;;;15.15;100.00
49945;BME280;35838;49.134;9.212;2022-10-15T03:22:21;99070.59;;;15.21;100.00
49945;BME280;35838;49.134;9.212;2022-10-15T03:23:55;99066.16;;;15.23;100.00
49945;BME280;35838;49.134;9.212;2022-10-15T03:25:26;99067.06;;;15.22;100.00
49945;BME280;35838;49.134;9.212;2022-10-15T03:27:01;99071.38;;;15.23;100.00
49945;BME280;35838;49.134;9.212;2022-10-15T03:28:35;99066.97;;;15.25;100.00
49945;BME280;35838;49.134;9.212;2022-10-15T03:30:08;99061.91;;;15.20;100.00
49945;BME280;35838;49.134;9.212;2022-10-15T03:31:42;99058.22;;;15.26;100.00
49945;BME280;35838;49.134;9.212;2022-10-15T03:33:13;99059.06;;;15.27;100.00
49945;BME280;35838;49.134;9.212;2022-10-15T03:34:47;99065.81;;;15.32;100.00
49945;BME280;35838;49.134;9.212;2022-10-15T03:36:21;99062.25;;;15.35;100.00
49945;BME280;35838;49.134;9.212;2022-10-15T03:37:58;99064.81;;;15.37;100.00
49945;BME280;35838;49.134;9.212;2022-10-15T03:39:32;99064.81;;;15.37;100.00
49945;BME280;35838;49.134;9.212;2022-10-15T03:41:06;99062.97;;;15.39;100.00
49945;BME280;35838;49.134;9.212;2022-10-15T03:42:38;99063.78;;;15.41;100.00
49945;BME280;35838;49.134;9.212;2022-10-15T03:44:12;99065.47;;;15.42;100.00
49945;BME280;35838;49.134;9.212;2022-10-15T03:45:43;99070.81;;;15.39;100.00
49945;BME280;35838;49.134;9.212;2022-10-15T03:47:17;99075.13;;;15.40;100.00
49945;BME280;35838;49.134;9.212;2022-10-15T03:48:51;99072.41;;;15.43;100.00
49945;BME280;35838;49.134;9.212;2022-10-15T03:50:25;99071.50;;;15.44;100.00
49945;BME280;35838;49.134;9.212;2022-10-15T03:51:59;99071.50;;;15.44;100.00
49945;BME280;35838;49.134;9.212;2022-10-15T03:53:36;99077.75;;;15.40;100.00
49945;BME280;35838;49.134;9.212;2022-10-15T03:55:10;99070.97;;;15.34;100.00
49945;BME280;35838;49.134;9.212;2022-10-15T03:56:42;99075.13;;;15.40;100.00
49945;BME280;35838;49.134;9.212;2022-10-15T03:58:16;99075.13;;;15.40;100.00
49945;BME280;35838;49.134;9.212;2022-10-15T03:59:50;99070.72;;;15.42;100.00
49945;BME280;35838;49.134;9.212;2022-10-15T04:01:27;99077.81;;;15.38;100.00
49945;BME280;35838;49.134;9.212;2022-10-15T04:03:01;99076.84;;;15.41;100.00
49945;BME280;35838;49.134;9.212;2022-10-15T04:04:33;99073.66;;;15.32;100.00
49945;BME280;35838;49.134;9.212;2022-10-15T04:06:07;99079.03;;;15.29;100.00
49945;BME280;35838;49.134;9.212;2022-10-15T04:07:41;99082.38;;;15.33;100.00
49945;BME280;35838;49.134;9.212;2022-10-15T04:09:18;99087.81;;;15.27;100.00
49945;BME280;35838;49.134;9.212;2022-10-15T04:10:50;99087.47;;;15.36;100.00
49945;BME280;35838;49.134;9.212;2022-10-15T04:12:24;99080.59;;;15.33;100.00
49945;BME280;35838;49.134;9.212;2022-10-15T04:13:55;99092.66;;;15.38;100.00
49945;BME280;35838;49.134;9.212;2022-10-15T04:15:29;99089.09;;;15.40;100.00
49945;BME280;35838;49.134;9.212;2022-10-15T04:17:03;99081.09;;;15.43;100.00
49945;BME280;35838;49.134;9.212;2022-10-15T04:18:37;99080.38;;;15.40;100.00
49945;BME280;35838;49.134;9.212;2022-10-15T04:20:10;99101.19;;;15.43;100.00
49945;BME280;35838;49.134;9.212;2022-10-15T04:21:44;99088.94;;;15.43;100.00
49945;BME280;35838;49.134;9.212;2022-10-15T04:23:18;99099.53;;;15.40;100.00
49945;BME280;35838;49.134;9.212;2022-10-15T04:24:54;99093.44;;;15.40;100.00
49945;BME280;35838;49.134;9.212;2022-10-15T04:26:28;99086.28;;;15.45;100.00
49945;BME280;35838;49.134;9.212;2022-10-15T04:28:02;99098.41;;;15.47;100.00
49945;BME280;35838;49.134;9.212;2022-10-15T04:29:34;99108.22;;;15.41;100.00
49945;BME280;35838;49.134;9.212;2022-10-15T04:31:08;99098.41;;;15.47;100.00
49945;BME280;35838;49.134;9.212;2022-10-15T04:32:42;99101.81;;;15.49;100.00
49945;BME280;35838;49.134;9.212;2022-10-15T04:34:16;99098.34;;;15.49;100.00
49945;BME280;35838;49.134;9.212;2022-10-15T04:35:57;99117.53;;;15.48;100.00
49945;BME280;35838;49.134;9.212;2022-10-15T04:37:32;99113.91;;;15.52;100.00
49945;BME280;35838;49.134;9.212;2022-10-15T04:39:06;99116.88;;;15.43;100.00
49945;BME280;35838;49.134;9.212;2022-10-15T04:40:42;99108.22;;;15.41;100.00
49945;BME280;35838;49.134;9.212;2022-10-15T04:42:16;99108.63;;;15.54;100.00
49945;BME280;35838;49.134;9.212;2022-10-15T04:43:51;99109.50;;;15.54;100.00
49945;BME280;35838;49.134;9.212;2022-10-15T04:45:25;99119.88;;;15.56;100.00
49945;BME280;35838;49.134;9.212;2022-10-15T04:47:00;99122.41;;;15.59;100.00
49945;BME280;35838;49.134;9.212;2022-10-15T04:48:36;99117.53;;;15.48;100.00
49945;BME280;35838;49.134;9.212;2022-10-15T04:50:11;99119.16;;;15.52;100.00
49945;BME280;35838;49.134;9.212;2022-10-15T04:51:45;99123.34;;;15.56;100.00
49945;BME280;35838;49.134;9.212;2022-10-15T04:53:19;99115.50;;;15.56;100.00
49945;BME280;35838;49.134;9.212;2022-10-15T04:54:50;99128.47;;;15.59;100.00
49945;BME280;35838;49.134;9.212;2022-10-15T04:56:27;99127.00;;;15.52;100.00
49945;BME280;35838;49.134;9.212;2022-10-15T04:58:01;99128.63;;;15.55;100.00
49945;BME280;35838;49.134;9.212;2022-10-15T04:59:35;99134.03;;;15.50;100.00
49945;BME280;35838;49.134;9.212;2022-10-15T05:01:11;99134.16;;;15.47;100.00
49945;BME280;35838;49.134;9.212;2022-10-15T05:02:43;99131.50;;;15.48;100.00
49945;BME280;35838;49.134;9.212;2022-10-15T05:04:17;99132.28;;;15.50;100.00
49945;BME280;35838;49.134;9.212;2022-10-15T05:05:51;99133.22;;;15.48;100.00
49945;BME280;35838;49.134;9.212;2022-10-15T05:07:25;99147.19;;;15.48;100.00
49945;BME280;35838;49.134;9.212;2022-10-15T05:08:59;99134.94;;;15.49;100.00
49945;BME280;35838;49.134;9.212;2022-10-15T05:10:32;99136.47;;;15.55;100.00
49945;BME280;35838;49.134;9.212;2022-10-15T05:12:08;99136.41;;;15.56;100.00
49945;BME280;35838;49.134;9.212;2022-10-15T05:13:42;99143.41;;;15.56;100.00
49945;BME280;35838;49.134;9.212;2022-10-15T05:15:14;99135.66;;;15.54;100.00
49945;BME280;35838;49.134;9.212;2022-10-15T05:16:48;99138.25;;;15.54;100.00
49945;BME280;35838;49.134;9.212;2022-10-15T05:18:22;99138.09;;;15.59;100.00
49945;BME280;35838;49.134;9.212;2022-10-15T05:19:53;99137.34;;;15.55;100.00
49945;BME280;35838;49.134;9.212;2022-10-15T05:21:28;99138.03;;;15.60;100.00
49945;BME280;35838;49.134;9.212;2022-10-15T05:23:02;99137.22;;;15.58;100.00
49945;BME280;35838;49.134;9.212;2022-10-15T05:24:37;99146.94;;;15.55;100.00
49945;BME280;35838;49.134;9.212;2022-10-15T05:26:12;99146.09;;;15.54;100.00
49945;BME280;35838;49.134;9.212;2022-10-15T05:27:47;99151.19;;;15.57;100.00
49945;BME280;35838;49.134;9.212;2022-10-15T05:29:22;99153.25;;;15.49;100.00
49945;BME280;35838;49.134;9.212;2022-10-15T05:30:56;99151.38;;;15.52;100.00
49945;BME280;35838;49.134;9.212;2022-10-15T05:32:27;99156.25;;;15.62;100.00
49945;BME280;35838;49.134;9.212;2022-10-15T05:34:05;99154.72;;;15.56;100.00
49945;BME280;35838;49.134;9.212;2022-10-15T05:35:39;99162.22;;;15.65;100.00
49945;BME280;35838;49.134;9.212;2022-10-15T05:37:14;99164.25;;;15.59;100.00
49945;BME280;35838;49.134;9.212;2022-10-15T05:38:49;99171.28;;;15.57;100.00
49945;BME280;35838;49.134;9.212;2022-10-15T05:40:23;99163.59;;;15.52;100.00
49945;BME280;35838;49.134;9.212;2022-10-15T05:41:57;99172.03;;;15.60;100.00
49945;BME280;35838;49.134;9.212;2022-10-15T05:43:34;99174.06;;;15.52;100.00
49945;BME280;35838;49.134;9.212;2022-10-15T05:45:09;99174.56;;;15.62;100.00
49945;BME280;35838;49.134;9.212;2022-10-15T05:46:43;99177.47;;;15.54;100.00
49945;BME280;35838;49.134;9.212;2022-10-15T05:48:17;99186.91;;;15.58;100.00
49945;BME280;35838;49.134;9.212;2022-10-15T05:49:51;99183.97;;;15.67;100.00
49945;BME280;35838;49.134;9.212;2022-10-15T05:51:26;99179.63;;;15.66;100.00
49945;BME280;35838;49.134;9.212;2022-10-15T05:53:01;99183.28;;;15.62;100.00
49945;BME280;35838;49.134;9.212;2022-10-15T05:54:35;99180.66;;;15.62;100.00
49945;BME280;35838;49.134;9.212;2022-10-15T05:56:09;99181.66;;;15.60;100.00
49945;BME280;35838;49.134;9.212;2022-10-15T05:57:43;99182.56;;;15.59;100.00
49945;BME280;35838;49.134;9.212;2022-10-15T05:59:17;99189.66;;;15.55;100.00
49945;BME280;35838;49.134;9.212;2022-10-15T06:00:55;99191.13;;;15.62;100.00
49945;BME280;35838;49.134;9.212;2022-10-15T06:02:29;99188.63;;;15.59;100.00
49945;BME280;35838;49.134;9.212;2022-10-15T06:04:03;99194.75;;;15.58;100.00
49945;BME280;35838;49.134;9.212;2022-10-15T06:05:35;99200.69;;;15.63;100.00
49945;BME280;35838;49.134;9.212;2022-10-15T06:07:09;99198.06;;;15.63;100.00
49945;BME280;35838;49.134;9.212;2022-10-15T06:08:43;99199.19;;;15.56;100.00
49945;BME280;35838;49.134;9.212;2022-10-15T06:10:15;99200.13;;;15.55;100.00
49945;BME280;35838;49.134;9.212;2022-10-15T06:11:49;99206.66;;;15.67;100.00
49945;BME280;35838;49.134;9.212;2022-10-15T06:13:23;99208.72;;;15.57;100.00
49945;BME280;35838;49.134;9.212;2022-10-15T06:15:00;99199.19;;;15.56;100.00
49945;BME280;35838;49.134;9.212;2022-10-15T06:16:34;99215.69;;;15.58;100.00
49945;BME280;35838;49.134;9.212;2022-10-15T06:18:08;99219.44;;;15.51;100.00
49945;BME280;35838;49.134;9.212;2022-10-15T06:19:42;99212.56;;;15.48;100.00
49945;BME280;35838;49.134;9.212;2022-10-15T06:21:16;99217.84;;;15.47;100.00
49945;BME280;35838;49.134;9.212;2022-10-15T06:22:50;99217.94;;;15.44;100.00
49945;BME280;35838;49.134;9.212;2022-10-15T06:24:24;99220.31;;;15.50;100.00
49945;BME280;35838;49.134;9.212;2022-10-15T06:25:55;99225.84;;;15.42;100.00
49945;BME280;35838;49.134;9.212;2022-10-15T06:27:29;99228.50;;;15.41;100.00
49945;BME280;35838;49.134;9.212;2022-10-15T06:29:03;99229.25;;;15.44;100.00
49945;BME280;35838;49.134;9.212;2022-10-15T06:30:39;99226.69;;;15.43;100.00
49945;BME280;35838;49.134;9.212;2022-10-15T06:32:13;99226.53;;;15.47;100.00
49945;BME280;35838;49.134;9.212;2022-10-15T06:33:47;99241.38;;;15.47;100.00
49945;BME280;35838;49.134;9.212;2022-10-15T06:35:22;99236.25;;;15.44;100.00
49945;BME280;35838;49.134;9.212;2022-10-15T06:36:56;99241.38;;;15.47;100.00
49945;BME280;35838;49.134;9.212;2022-10-15T06:38:31;99245.34;;;15.57;100.00
49945;BME280;35838;49.134;9.212;2022-10-15T06:40:06;99246.47;;;15.50;100.00
49945;BME280;35838;49.134;9.212;2022-10-15T06:41:40;99252.44;;;15.54;100.00
49945;BME280;35838;49.134;9.212;2022-10-15T06:43:14;99263.88;;;15.51;100.00
49945;BME280;35838;49.134;9.212;2022-10-15T06:44:48;99261.84;;;15.59;100.00
49945;BME280;35838;49.134;9.212;2022-10-15T06:46:25;99267.66;;;15.67;100.00
49945;BME280;35838;49.134;9.212;2022-10-15T06:47:59;99268.69;;;15.63;100.00
49945;BME280;35838;49.134;9.212;2022-10-15T06:49:33;99263.06;;;15.74;100.00
49945;BME280;35838;49.134;9.212;2022-10-15T06:51:07;99271.84;;;15.73;100.00
49945;BME280;35838;49.134;9.212;2022-10-15T06:52:41;99276.22;;;15.73;100.00
49945;BME280;35838;49.134;9.212;2022-10-15T06:54:15;99267.41;;;15.75;100.00
49945;BME280;35838;49.134;9.212;2022-10-15T06:55:49;99275.63;;;15.64;100.00
49945;BME280;35838;49.134;9.212;2022-10-15T06:57:23;99279.84;;;15.69;100.00
49945;BME280;35838;49.134;9.212;2022-10-15T06:58:57;99282.53;;;15.67;100.00
49945;BME280;35838;49.134;9.212;2022-10-15T07:00:31;99281.56;;;15.70;100.00
49945;BME280;35838;49.134;9.212;2022-10-15T07:02:06;99284.38;;;15.63;100.00
49945;BME280;35838;49.134;9.212;2022-10-15T07:03:40;99287.00;;;15.63;100.00
49945;BME280;35838;49.134;9.212;2022-10-15T07:05:14;99288.06;;;15.58;100.00
49945;BME280;35838;49.134;9.212;2022-10-15T07:06:48;99289.19;;;15.50;100.00
49945;BME280;35838;49.134;9.212;2022-10-15T07:08:23;99289.22;;;15.49;100.00
49945;BME280;35838;49.134;9.212;2022-10-15T07:09:58;99295.25;;;15.51;100.00
49945;BME280;35838;49.134;9.212;2022-10-15T07:11:32;99303.91;;;15.53;100.00
49945;BME280;35838;49.134;9.212;2022-10-15T07:13:06;99303.59;;;15.62;100.00
49945;BME280;35838;49.134;9.212;2022-10-15T07:14:40;99318.25;;;15.66;100.00
49945;BME280;35838;49.134;9.212;2022-10-15T07:16:12;99309.63;;;15.64;100.00
49945;BME280;35838;49.134;9.212;2022-10-15T07:17:50;99309.28;;;15.74;100.00
49945;BME280;35838;49.134;9.212;2022-10-15T07:19:26;99310.25;;;15.71;100.00
49945;BME280;35838;49.134;9.212;2022-10-15T07:21:00;99314.66;;;15.71;100.00
49945;BME280;35838;49.134;9.212;2022-10-15T07:22:35;99315.50;;;15.71;100.00
49945;BME280;35838;49.134;9.212;2022-10-15T07:24:09;99319.16;;;15.65;100.00
49945;BME280;35838;49.134;9.212;2022-10-15T07:25:43;99318.75;;;15.78;100.00
49945;BME280;35838;49.134;9.212;2022-10-15T07:27:17;99312.94;;;15.70;100.00
49945;BME280;35838;49.134;9.212;2022-10-15T07:28:51;99322.44;;;15.72;100.00
49945;BME280;35838;49.134;9.212;2022-10-15T07:30:25;99316.38;;;15.72;100.00
49945;BME280;35838;49.134;9.212;2022-10-15T07:32:00;99327.50;;;15.77;100.00
49945;BME280;35838;49.134;9.212;2022-10-15T07:33:36;99319.13;;;15.67;100.00
49945;BME280;35838;49.134;9.212;2022-10-15T07:35:11;99321.59;;;15.72;100.00
49945;BME280;35838;49.134;9.212;2022-10-15T07:36:45;99318.25;;;15.68;100.00
49945;BME280;35838;49.134;9.212;2022-10-15T07:38:16;99324.81;;;15.80;100.00
49945;BME280;35838;49.134;9.212;2022-10-15T07:39:50;99326.81;;;15.72;100.00
49945;BME280;35838;49.134;9.212;2022-10-15T07:41:24;99332.66;;;15.80;100.00
49945;BME280;35838;49.134;9.212;2022-10-15T07:42:59;99327.13;;;15.89;100.00
49945;BME280;35838;49.134;9.212;2022-10-15T07:44:33;99334.56;;;15.75;100.00
49945;BME280;35838;49.134;9.212;2022-10-15T07:46:07;99329.91;;;15.83;100.00
49945;BME280;35838;49.134;9.212;2022-10-15T07:47:41;99331.91;;;15.76;100.00
49945;BME280;35838;49.134;9.212;2022-10-15T07:49:17;99335.81;;;15.64;100.00
49945;BME280;35838;49.134;9.212;2022-10-15T07:50:54;99330.13;;;15.77;100.00
49945;BME280;35838;49.134;9.212;2022-10-15T07:52:29;99339.84;;;15.73;100.00
49945;BME280;35838;49.134;9.212;2022-10-15T07:54:04;99341.03;;;15.64;100.00
49945;BME280;35838;49.134;9.212;2022-10-15T07:55:38;99335.88;;;15.61;100.00
49945;BME280;35838;49.134;9.212;2022-10-15T07:57:12;99340.22;;;15.62;100.00
49945;BME280;35838;49.134;9.212;2022-10-15T07:58:46;99339.31;;;15.63;100.00
49945;BME280;35838;49.134;9.212;2022-10-15T08:00:21;99347.69;;;15.73;100.00
49945;BME280;35838;49.134;9.212;2022-10-15T08:01:55;99353.59;;;15.78;100.00
49945;BME280;35838;49.134;9.212;2022-10-15T08:03:29;99359.59;;;15.84;100.00
49945;BME280;35838;49.134;9.212;2022-10-15T08:05:07;99356.28;;;15.77;100.00
49945;BME280;35838;49.134;9.212;2022-10-15T08:06:41;99364.13;;;15.77;100.00
49945;BME280;35838;49.134;9.212;2022-10-15T08:08:15;99360.56;;;15.79;100.00
49945;BME280;35838;49.134;9.212;2022-10-15T08:09:49;99363.59;;;15.94;100.00
49945;BME280;35838;49.134;9.212;2022-10-15T08:11:23;99364.28;;;15.99;100.00
49945;BME280;35838;49.134;9.212;2022-10-15T08:12:57;99369.03;;;15.88;100.00
49945;BME280;35838;49.134;9.212;2022-10-15T08:14:31;99365.25;;;15.96;100.00
49945;BME280;35838;49.134;9.212;2022-10-15T08:16:06;99365.94;;;16.02;100.00
49945;BME280;35838;49.134;9.212;2022-10-15T08:17:40;99364.44;;;15.94;100.00
49945;BME280;35838;49.134;9.212;2022-10-15T08:19:15;99365.91;;;16.03;100.00
49945;BME280;35838;49.134;9.212;2022-10-15T08:20:52;99368.28;;;16.09;100.00